sensor_id;sensor_type;location;lat;lon;timestamp;temperature;humidity
11423;DHT22;5768;51.476;7.210;2022-07-24T00:01:13;20.60;18.40
11423;DHT22;5768;51.476;7.210;2022-07-24T00:04:16;20.50;18.40
11423;DHT22;5768;51.476;7.210;2022-07-24T00:07:18;20.50;18.50
11423;DHT22;5768;51.476;7.210;2022-07-24T00:10:22;20.50;18.50
11423;DHT22;5768;51.476;7.210;2022-07-24T00:13:24;20.40;18.40
11423;DHT22;5768;51.476;7.210;2022-07-24T00:16:26;20.40;18.50
11423;DHT22;5768;51.476;7.210;2022-07-24T00:19:28;20.40;18.60
11423;DHT22;5768;51.476;7.210;2022-07-24T00:22:30;20.40;18.50
11423;DHT22;5768;51.476;7.210;2022-07-24T00:25:34;20.40;18.50
11423;DHT22;5768;51.476;7.210;2022-07-24T00:28:36;20.30;18.60
11423;DHT22;5768;51.476;7.210;2022-07-24T00:31:38;20.20;18.70
11423;DHT22;5768;51.476;7.210;2022-07-24T00:34:40;20.20;18.70
11423;DHT22;5768;51.476;7.210;2022-07-24T00:37:42;20.20;18.80
11423;DHT22;5768;51.476;7.210;2022-07-24T00:40:48;20.20;18.90
11423;DHT22;5768;51.476;7.210;2022-07-24T00:44:05;20.20;18.80
11423;DHT22;5768;51.476;7.210;2022-07-24T00:47:08;20.20;18.70
11423;DHT22;5768;51.476;7.210;2022-07-24T00:50:10;20.10;18.80
11423;DHT22;5768;51.476;7.210;2022-07-24T00:53:14;20.10;18.90
11423;DHT22;5768;51.476;7.210;2022-07-24T00:56:18;20.10;18.90
11423;DHT22;5768;51.476;7.210;2022-07-24T00:59:21;20.00;18.90
11423;DHT22;5768;51.476;7.210;2022-07-24T01:02:24;20.10;18.80
11423;DHT22;5768;51.476;7.210;2022-07-24T01:05:26;20.00;18.80
11423;DHT22;5768;51.476;7.210;2022-07-24T01:08:29;20.00;18.90
11423;DHT22;5768;51.476;7.210;2022-07-24T01:11:32;20.00;18.90
11423;DHT22;5768;51.476;7.210;2022-07-24T01:14:35;19.90;18.90
11423;DHT22;5768;51.476;7.210;2022-07-24T01:17:40;19.90;19.00
11423;DHT22;5768;51.476;7.210;2022-07-24T01:20:47;19.90;19.00
11423;DHT22;5768;51.476;7.210;2022-07-24T01:23:49;19.90;18.90
11423;DHT22;5768;51.476;7.210;2022-07-24T01:26:51;19.90;18.80
11423;DHT22;5768;51.476;7.210;2022-07-24T01:29:54;19.80;18.80
11423;DHT22;5768;51.476;7.210;2022-07-24T01:32:56;19.80;18.70
11423;DHT22;5768;51.476;7.210;2022-07-24T01:35:59;19.80;18.70
11423;DHT22;5768;51.476;7.210;2022-07-24T01:39:02;19.80;18.60
11423;DHT22;5768;51.476;7.210;2022-07-24T01:42:04;19.90;18.50
11423;DHT22;5768;51.476;7.210;2022-07-24T01:45:08;19.80;18.50
11423;DHT22;5768;51.476;7.210;2022-07-24T01:48:11;19.80;18.40
11423;DHT22;5768;51.476;7.210;2022-07-24T01:51:14;19.80;18.20
11423;DHT22;5768;51.476;7.210;2022-07-24T01:54:17;19.80;18.00
11423;DHT22;5768;51.476;7.210;2022-07-24T01:57:19;19.80;18.50
11423;DHT22;5768;51.476;7.210;2022-07-24T02:00:21;19.80;18.80
11423;DHT22;5768;51.476;7.210;2022-07-24T02:03:23;19.80;18.50
11423;DHT22;5768;51.476;7.210;2022-07-24T02:06:30;19.70;18.40
11423;DHT22;5768;51.476;7.210;2022-07-24T02:09:32;19.70;18.40
11423;DHT22;5768;51.476;7.210;2022-07-24T02:12:35;19.70;18.30
11423;DHT22;5768;51.476;7.210;2022-07-24T02:15:37;19.70;18.30
11423;DHT22;5768;51.476;7.210;2022-07-24T02:18:39;19.70;18.30
11423;DHT22;5768;51.476;7.210;2022-07-24T02:21:42;19.70;18.30
11423;DHT22;5768;51.476;7.210;2022-07-24T02:24:45;19.70;18.30
11423;DHT22;5768;51.476;7.210;2022-07-24T02:27:47;19.70;18.40
11423;DHT22;5768;51.476;7.210;2022-07-24T02:30:49;19.60;18.40
11423;DHT22;5768;51.476;7.210;2022-07-24T02:33:51;19.60;18.40
11423;DHT22;5768;51.476;7.210;2022-07-24T02:36:55;19.60;18.30
11423;DHT22;5768;51.476;7.210;2022-07-24T02:39:57;19.70;18.40
11423;DHT22;5768;51.476;7.210;2022-07-24T02:42:59;19.60;18.40
11423;DHT22;5768;51.476;7.210;2022-07-24T02:46:01;19.60;18.40
11423;DHT22;5768;51.476;7.210;2022-07-24T02:49:04;19.60;18.40
11423;DHT22;5768;51.476;7.210;2022-07-24T02:52:07;19.60;18.40
11423;DHT22;5768;51.476;7.210;2022-07-24T02:55:09;19.60;18.50
11423;DHT22;5768;51.476;7.210;2022-07-24T02:58:12;19.60;18.50
11423;DHT22;5768;51.476;7.210;2022-07-24T03:01:14;19.60;18.40
11423;DHT22;5768;51.476;7.210;2022-07-24T03:04:16;19.70;18.40
11423;DHT22;5768;51.476;7.210;2022-07-24T03:07:19;19.60;18.20
11423;DHT22;5768;51.476;7.210;2022-07-24T03:10:21;19.70;18.10
11423;DHT22;5768;51.476;7.210;2022-07-24T03:13:24;19.60;18.00
11423;DHT22;5768;51.476;7.210;2022-07-24T03:16:26;19.70;18.00
11423;DHT22;5768;51.476;7.210;2022-07-24T03:19:28;19.60;17.90
11423;DHT22;5768;51.476;7.210;2022-07-24T03:22:31;19.60;17.90
11423;DHT22;5768;51.476;7.210;2022-07-24T03:25:33;19.70;17.80
11423;DHT22;5768;51.476;7.210;2022-07-24T03:28:36;19.70;17.70
11423;DHT22;5768;51.476;7.210;2022-07-24T03:31:38;19.70;17.60
11423;DHT22;5768;51.476;7.210;2022-07-24T03:34:40;19.70;17.40
11423;DHT22;5768;51.476;7.210;2022-07-24T03:37:43;19.70;17.30
11423;DHT22;5768;51.476;7.210;2022-07-24T03:40:46;19.70;17.20
11423;DHT22;5768;51.476;7.210;2022-07-24T03:43:48;19.60;17.20
11423;DHT22;5768;51.476;7.210;2022-07-24T03:46:50;19.60;17.00
11423;DHT22;5768;51.476;7.210;2022-07-24T03:49:52;19.60;17.10
11423;DHT22;5768;51.476;7.210;2022-07-24T03:52:56;19.60;17.00
11423;DHT22;5768;51.476;7.210;2022-07-24T03:55:58;19.70;17.00
11423;DHT22;5768;51.476;7.210;2022-07-24T03:59:00;19.70;17.00
11423;DHT22;5768;51.476;7.210;2022-07-24T04:02:02;19.80;16.90
11423;DHT22;5768;51.476;7.210;2022-07-24T04:05:05;19.80;16.80
11423;DHT22;5768;51.476;7.210;2022-07-24T04:08:10;19.90;16.80
11423;DHT22;5768;51.476;7.210;2022-07-24T04:11:12;19.90;16.80
11423;DHT22;5768;51.476;7.210;2022-07-24T04:14:15;20.00;16.80
11423;DHT22;5768;51.476;7.210;2022-07-24T04:17:17;20.00;16.70
11423;DHT22;5768;51.476;7.210;2022-07-24T04:20:19;20.00;16.70
11423;DHT22;5768;51.476;7.210;2022-07-24T04:23:24;20.10;16.70
11423;DHT22;5768;51.476;7.210;2022-07-24T04:26:26;20.20;16.60
11423;DHT22;5768;51.476;7.210;2022-07-24T04:29:28;20.10;16.60
11423;DHT22;5768;51.476;7.210;2022-07-24T04:32:30;20.20;16.60
11423;DHT22;5768;51.476;7.210;2022-07-24T04:35:33;20.20;16.60
11423;DHT22;5768;51.476;7.210;2022-07-24T04:38:36;20.30;16.60
11423;DHT22;5768;51.476;7.210;2022-07-24T04:41:39;20.30;16.70
11423;DHT22;5768;51.476;7.210;2022-07-24T04:44:41;20.30;16.40
11423;DHT22;5768;51.476;7.210;2022-07-24T04:47:44;20.30;16.40
11423;DHT22;5768;51.476;7.210;2022-07-24T04:50:46;20.40;16.40
11423;DHT22;5768;51.476;7.210;2022-07-24T04:53:49;20.50;16.30
11423;DHT22;5768;51.476;7.210;2022-07-24T04:56:53;20.50;16.20
11423;DHT22;5768;51.476;7.210;2022-07-24T04:59:55;20.50;16.20
11423;DHT22;5768;51.476;7.210;2022-07-24T05:02:57;20.70;16.10
11423;DHT22;5768;51.476;7.210;2022-07-24T05:05:59;20.70;16.00
11423;DHT22;5768;51.476;7.210;2022-07-24T05:09:03;20.80;16.00
11423;DHT22;5768;51.476;7.210;2022-07-24T05:12:05;20.90;16.00
11423;DHT22;5768;51.476;7.210;2022-07-24T05:15:09;20.90;15.90
11423;DHT22;5768;51.476;7.210;2022-07-24T05:18:11;21.00;15.90
11423;DHT22;5768;51.476;7.210;2022-07-24T05:21:13;21.10;15.90
11423;DHT22;5768;51.476;7.210;2022-07-24T05:24:18;21.20;15.80
11423;DHT22;5768;51.476;7.210;2022-07-24T05:27:20;21.30;15.80
11423;DHT22;5768;51.476;7.210;2022-07-24T05:30:22;21.40;15.70
11423;DHT22;5768;51.476;7.210;2022-07-24T05:33:24;21.50;15.70
11423;DHT22;5768;51.476;7.210;2022-07-24T05:36:26;21.60;15.70
11423;DHT22;5768;51.476;7.210;2022-07-24T05:39:30;21.60;15.60
11423;DHT22;5768;51.476;7.210;2022-07-24T05:42:32;21.60;15.60
11423;DHT22;5768;51.476;7.210;2022-07-24T05:45:34;21.70;15.60
11423;DHT22;5768;51.476;7.210;2022-07-24T05:48:36;21.70;15.50
11423;DHT22;5768;51.476;7.210;2022-07-24T05:51:39;21.80;15.60
11423;DHT22;5768;51.476;7.210;2022-07-24T05:54:42;21.80;15.50
11423;DHT22;5768;51.476;7.210;2022-07-24T05:57:45;21.90;15.50
11423;DHT22;5768;51.476;7.210;2022-07-24T06:00:47;21.90;15.40
11423;DHT22;5768;51.476;7.210;2022-07-24T06:03:49;22.00;15.40
11423;DHT22;5768;51.476;7.210;2022-07-24T06:06:51;22.00;15.40
11423;DHT22;5768;51.476;7.210;2022-07-24T06:09:55;22.10;15.30
11423;DHT22;5768;51.476;7.210;2022-07-24T06:12:57;22.10;15.30
11423;DHT22;5768;51.476;7.210;2022-07-24T06:16:00;22.20;15.30
11423;DHT22;5768;51.476;7.210;2022-07-24T06:19:02;22.30;15.30
11423;DHT22;5768;51.476;7.210;2022-07-24T06:22:04;22.40;15.30
11423;DHT22;5768;51.476;7.210;2022-07-24T06:25:08;22.40;15.30
11423;DHT22;5768;51.476;7.210;2022-07-24T06:28:11;22.50;15.20
11423;DHT22;5768;51.476;7.210;2022-07-24T06:31:13;22.70;15.40
11423;DHT22;5768;51.476;7.210;2022-07-24T06:34:16;22.70;15.40
11423;DHT22;5768;51.476;7.210;2022-07-24T06:37:18;22.80;15.50
11423;DHT22;5768;51.476;7.210;2022-07-24T06:40:21;22.80;15.30
11423;DHT22;5768;51.476;7.210;2022-07-24T06:43:24;22.90;15.30
11423;DHT22;5768;51.476;7.210;2022-07-24T06:46:26;22.80;15.30
11423;DHT22;5768;51.476;7.210;2022-07-24T06:49:28;22.90;15.40
11423;DHT22;5768;51.476;7.210;2022-07-24T06:52:30;22.90;15.60
11423;DHT22;5768;51.476;7.210;2022-07-24T06:55:34;23.10;16.00
11423;DHT22;5768;51.476;7.210;2022-07-24T06:58:36;23.10;15.30
11423;DHT22;5768;51.476;7.210;2022-07-24T07:01:39;23.10;16.00
11423;DHT22;5768;51.476;7.210;2022-07-24T07:04:41;23.10;15.80
11423;DHT22;5768;51.476;7.210;2022-07-24T07:07:43;23.10;15.00
11423;DHT22;5768;51.476;7.210;2022-07-24T07:10:47;23.20;15.20
11423;DHT22;5768;51.476;7.210;2022-07-24T07:13:49;23.40;15.40
11423;DHT22;5768;51.476;7.210;2022-07-24T07:16:51;23.70;15.80
11423;DHT22;5768;51.476;7.210;2022-07-24T07:19:53;23.70;15.40
11423;DHT22;5768;51.476;7.210;2022-07-24T07:22:56;23.80;15.40
11423;DHT22;5768;51.476;7.210;2022-07-24T07:25:59;23.70;15.20
11423;DHT22;5768;51.476;7.210;2022-07-24T07:29:02;23.80;15.20
11423;DHT22;5768;51.476;7.210;2022-07-24T07:32:04;24.10;15.20
11423;DHT22;5768;51.476;7.210;2022-07-24T07:35:07;24.20;15.10
11423;DHT22;5768;51.476;7.210;2022-07-24T07:38:10;24.10;15.10
11423;DHT22;5768;51.476;7.210;2022-07-24T07:41:14;24.20;15.10
11423;DHT22;5768;51.476;7.210;2022-07-24T07:44:19;24.20;15.10
11423;DHT22;5768;51.476;7.210;2022-07-24T07:47:21;24.20;15.10
11423;DHT22;5768;51.476;7.210;2022-07-24T07:50:23;24.30;15.10
11423;DHT22;5768;51.476;7.210;2022-07-24T07:53:28;24.60;15.40
11423;DHT22;5768;51.476;7.210;2022-07-24T07:56:32;24.40;15.30
11423;DHT22;5768;51.476;7.210;2022-07-24T07:59:35;24.50;15.50
11423;DHT22;5768;51.476;7.210;2022-07-24T08:02:37;24.60;15.00
11423;DHT22;5768;51.476;7.210;2022-07-24T08:05:39;24.60;14.80
11423;DHT22;5768;51.476;7.210;2022-07-24T08:08:42;24.60;14.80
11423;DHT22;5768;51.476;7.210;2022-07-24T08:11:45;24.60;14.80
11423;DHT22;5768;51.476;7.210;2022-07-24T08:14:48;24.50;14.70
11423;DHT22;5768;51.476;7.210;2022-07-24T08:17:53;24.70;14.70
11423;DHT22;5768;51.476;7.210;2022-07-24T08:20:56;24.70;14.80
11423;DHT22;5768;51.476;7.210;2022-07-24T08:23:58;24.80;14.70
11423;DHT22;5768;51.476;7.210;2022-07-24T08:27:02;25.00;14.60
11423;DHT22;5768;51.476;7.210;2022-07-24T08:30:05;25.00;14.50
11423;DHT22;5768;51.476;7.210;2022-07-24T08:33:08;24.90;14.50
11423;DHT22;5768;51.476;7.210;2022-07-24T08:36:10;24.90;14.60
11423;DHT22;5768;51.476;7.210;2022-07-24T08:39:13;25.00;14.50
11423;DHT22;5768;51.476;7.210;2022-07-24T08:42:18;24.90;14.50
11423;DHT22;5768;51.476;7.210;2022-07-24T08:45:21;24.90;14.40
11423;DHT22;5768;51.476;7.210;2022-07-24T08:48:23;24.60;14.50
11423;DHT22;5768;51.476;7.210;2022-07-24T08:51:32;24.80;14.50
11423;DHT22;5768;51.476;7.210;2022-07-24T08:54:35;24.90;14.40
11423;DHT22;5768;51.476;7.210;2022-07-24T08:57:39;25.10;14.40
11423;DHT22;5768;51.476;7.210;2022-07-24T09:00:45;25.30;14.40
11423;DHT22;5768;51.476;7.210;2022-07-24T09:03:47;25.10;14.30
11423;DHT22;5768;51.476;7.210;2022-07-24T09:06:56;25.20;14.40
11423;DHT22;5768;51.476;7.210;2022-07-24T09:10:03;25.40;14.30
11423;DHT22;5768;51.476;7.210;2022-07-24T09:13:15;25.30;14.30
11423;DHT22;5768;51.476;7.210;2022-07-24T09:16:19;25.20;14.40
11423;DHT22;5768;51.476;7.210;2022-07-24T09:19:23;25.40;14.30
11423;DHT22;5768;51.476;7.210;2022-07-24T09:22:31;25.60;14.40
11423;DHT22;5768;51.476;7.210;2022-07-24T09:25:41;25.90;14.40
11423;DHT22;5768;51.476;7.210;2022-07-24T09:28:53;25.90;14.40
11423;DHT22;5768;51.476;7.210;2022-07-24T09:31:58;26.00;14.40
11423;DHT22;5768;51.476;7.210;2022-07-24T09:35:03;26.10;14.30
11423;DHT22;5768;51.476;7.210;2022-07-24T09:38:08;26.20;14.30
11423;DHT22;5768;51.476;7.210;2022-07-24T09:41:12;26.00;14.20
11423;DHT22;5768;51.476;7.210;2022-07-24T09:44:22;26.30;14.30
11423;DHT22;5768;51.476;7.210;2022-07-24T09:47:29;26.30;14.20
11423;DHT22;5768;51.476;7.210;2022-07-24T09:50:36;26.60;13.90
11423;DHT22;5768;51.476;7.210;2022-07-24T09:53:45;26.70;13.90
11423;DHT22;5768;51.476;7.210;2022-07-24T09:56:49;26.60;13.70
11423;DHT22;5768;51.476;7.210;2022-07-24T09:59:55;26.60;13.80
11423;DHT22;5768;51.476;7.210;2022-07-24T10:03:00;26.60;13.80
11423;DHT22;5768;51.476;7.210;2022-07-24T10:06:09;26.60;13.80
11423;DHT22;5768;51.476;7.210;2022-07-24T10:09:17;26.80;13.80
11423;DHT22;5768;51.476;7.210;2022-07-24T10:12:28;26.80;13.70
11423;DHT22;5768;51.476;7.210;2022-07-24T10:15:34;26.90;13.80
11423;DHT22;5768;51.476;7.210;2022-07-24T10:18:47;27.10;13.80
11423;DHT22;5768;51.476;7.210;2022-07-24T10:21:53;27.20;13.70
11423;DHT22;5768;51.476;7.210;2022-07-24T10:24:57;27.10;13.60
11423;DHT22;5768;51.476;7.210;2022-07-24T10:28:11;27.10;13.60
11423;DHT22;5768;51.476;7.210;2022-07-24T10:31:23;27.20;13.60
11423;DHT22;5768;51.476;7.210;2022-07-24T10:34:31;27.20;13.60
11423;DHT22;5768;51.476;7.210;2022-07-24T10:37:48;27.10;13.60
11423;DHT22;5768;51.476;7.210;2022-07-24T10:41:01;27.30;13.60
11423;DHT22;5768;51.476;7.210;2022-07-24T10:44:14;27.40;13.50
11423;DHT22;5768;51.476;7.210;2022-07-24T10:47:25;27.60;13.70
11423;DHT22;5768;51.476;7.210;2022-07-24T10:51:03;27.60;13.50
11423;DHT22;5768;51.476;7.210;2022-07-24T10:54:17;27.70;13.70
11423;DHT22;5768;51.476;7.210;2022-07-24T10:57:45;27.80;14.20
11423;DHT22;5768;51.476;7.210;2022-07-24T11:00:50;28.00;14.70
11423;DHT22;5768;51.476;7.210;2022-07-24T11:03:54;28.00;14.10
11423;DHT22;5768;51.476;7.210;2022-07-24T11:07:09;28.00;14.10
11423;DHT22;5768;51.476;7.210;2022-07-24T11:10:16;28.30;13.80
11423;DHT22;5768;51.476;7.210;2022-07-24T11:17:37;27.80;13.50
11423;DHT22;5768;51.476;7.210;2022-07-24T11:20:43;27.90;13.50
11423;DHT22;5768;51.476;7.210;2022-07-24T11:24:16;28.00;13.60
11423;DHT22;5768;51.476;7.210;2022-07-24T11:27:52;28.20;13.80
11423;DHT22;5768;51.476;7.210;2022-07-24T11:31:00;28.30;14.10
11423;DHT22;5768;51.476;7.210;2022-07-24T11:34:08;28.70;13.90
11423;DHT22;5768;51.476;7.210;2022-07-24T11:37:13;28.30;13.90
11423;DHT22;5768;51.476;7.210;2022-07-24T11:40:16;28.40;13.50
11423;DHT22;5768;51.476;7.210;2022-07-24T11:43:18;28.20;13.40
11423;DHT22;5768;51.476;7.210;2022-07-24T11:46:33;28.30;13.60
11423;DHT22;5768;51.476;7.210;2022-07-24T11:49:43;28.20;13.60
11423;DHT22;5768;51.476;7.210;2022-07-24T11:56:02;28.50;12.80
11423;DHT22;5768;51.476;7.210;2022-07-24T11:59:05;28.70;12.70
11423;DHT22;5768;51.476;7.210;2022-07-24T12:02:09;28.40;12.80
11423;DHT22;5768;51.476;7.210;2022-07-24T12:05:13;28.50;13.20
11423;DHT22;5768;51.476;7.210;2022-07-24T12:08:26;28.60;12.90
11423;DHT22;5768;51.476;7.210;2022-07-24T12:11:33;28.80;13.40
11423;DHT22;5768;51.476;7.210;2022-07-24T12:14:36;29.00;13.00
11423;DHT22;5768;51.476;7.210;2022-07-24T12:17:53;28.50;12.90
11423;DHT22;5768;51.476;7.210;2022-07-24T12:21:01;29.20;13.60
11423;DHT22;5768;51.476;7.210;2022-07-24T12:24:08;29.90;12.70
11423;DHT22;5768;51.476;7.210;2022-07-24T12:27:11;29.90;13.60
11423;DHT22;5768;51.476;7.210;2022-07-24T12:30:22;29.90;13.10
11423;DHT22;5768;51.476;7.210;2022-07-24T12:33:28;30.40;12.50
11423;DHT22;5768;51.476;7.210;2022-07-24T12:36:33;30.30;12.90
11423;DHT22;5768;51.476;7.210;2022-07-24T12:39:46;30.90;12.30
11423;DHT22;5768;51.476;7.210;2022-07-24T12:42:59;31.70;12.10
11423;DHT22;5768;51.476;7.210;2022-07-24T12:46:06;32.40;12.10
11423;DHT22;5768;51.476;7.210;2022-07-24T12:49:11;32.30;11.90
11423;DHT22;5768;51.476;7.210;2022-07-24T12:52:20;33.30;12.00
11423;DHT22;5768;51.476;7.210;2022-07-24T12:55:26;34.60;12.00
11423;DHT22;5768;51.476;7.210;2022-07-24T12:58:28;35.10;12.00
11423;DHT22;5768;51.476;7.210;2022-07-24T13:01:46;35.20;12.20
11423;DHT22;5768;51.476;7.210;2022-07-24T13:04:51;36.20;11.60
11423;DHT22;5768;51.476;7.210;2022-07-24T13:08:05;36.40;11.70
11423;DHT22;5768;51.476;7.210;2022-07-24T13:11:09;37.50;12.00
11423;DHT22;5768;51.476;7.210;2022-07-24T13:14:13;36.20;11.50
11423;DHT22;5768;51.476;7.210;2022-07-24T13:20:21;37.50;11.20
11423;DHT22;5768;51.476;7.210;2022-07-24T13:23:23;39.10;10.90
11423;DHT22;5768;51.476;7.210;2022-07-24T13:26:27;39.00;10.60
11423;DHT22;5768;51.476;7.210;2022-07-24T13:29:30;38.90;10.10
11423;DHT22;5768;51.476;7.210;2022-07-24T13:32:35;40.60;10.20
11423;DHT22;5768;51.476;7.210;2022-07-24T13:35:37;40.00;10.60
11423;DHT22;5768;51.476;7.210;2022-07-24T13:38:42;40.40;10.00
11423;DHT22;5768;51.476;7.210;2022-07-24T13:42:15;40.50;9.70
11423;DHT22;5768;51.476;7.210;2022-07-24T13:45:23;41.80;9.70
11423;DHT22;5768;51.476;7.210;2022-07-24T13:48:45;40.90;10.30
11423;DHT22;5768;51.476;7.210;2022-07-24T13:51:48;41.50;10.70
11423;DHT22;5768;51.476;7.210;2022-07-24T13:54:51;43.80;10.70
11423;DHT22;5768;51.476;7.210;2022-07-24T13:57:57;44.50;10.90
11423;DHT22;5768;51.476;7.210;2022-07-24T14:00:59;45.30;9.90
11423;DHT22;5768;51.476;7.210;2022-07-24T14:04:02;47.30;9.60
11423;DHT22;5768;51.476;7.210;2022-07-24T14:07:09;48.60;9.40
11423;DHT22;5768;51.476;7.210;2022-07-24T14:10:11;47.60;9.20
11423;DHT22;5768;51.476;7.210;2022-07-24T14:13:15;49.20;9.20
11423;DHT22;5768;51.476;7.210;2022-07-24T14:16:17;49.20;9.10
11423;DHT22;5768;51.476;7.210;2022-07-24T14:19:21;48.80;9.20
11423;DHT22;5768;51.476;7.210;2022-07-24T14:22:23;46.80;9.40
11423;DHT22;5768;51.476;7.210;2022-07-24T14:25:25;46.90;9.50
11423;DHT22;5768;51.476;7.210;2022-07-24T14:28:29;48.70;8.60
11423;DHT22;5768;51.476;7.210;2022-07-24T14:31:31;49.40;8.70
11423;DHT22;5768;51.476;7.210;2022-07-24T14:34:43;49.00;8.70
11423;DHT22;5768;51.476;7.210;2022-07-24T14:37:50;48.10;9.00
11423;DHT22;5768;51.476;7.210;2022-07-24T14:40:52;48.60;8.90
11423;DHT22;5768;51.476;7.210;2022-07-24T14:43:56;47.20;8.60
11423;DHT22;5768;51.476;7.210;2022-07-24T14:46:58;48.60;9.00
11423;DHT22;5768;51.476;7.210;2022-07-24T14:50:01;50.20;8.70
11423;DHT22;5768;51.476;7.210;2022-07-24T14:53:03;49.80;8.80
11423;DHT22;5768;51.476;7.210;2022-07-24T14:56:06;48.90;9.10
11423;DHT22;5768;51.476;7.210;2022-07-24T14:59:10;50.10;8.80
11423;DHT22;5768;51.476;7.210;2022-07-24T15:02:13;51.30;8.70
11423;DHT22;5768;51.476;7.210;2022-07-24T15:05:16;52.50;5.70
11423;DHT22;5768;51.476;7.210;2022-07-24T15:08:18;53.10;6.40
11423;DHT22;5768;51.476;7.210;2022-07-24T15:11:20;53.70;7.40
11423;DHT22;5768;51.476;7.210;2022-07-24T15:14:27;53.30;7.60
11423;DHT22;5768;51.476;7.210;2022-07-24T15:17:29;51.60;7.70
11423;DHT22;5768;51.476;7.210;2022-07-24T15:20:32;53.30;7.80
11423;DHT22;5768;51.476;7.210;2022-07-24T15:23:34;52.00;8.80
11423;DHT22;5768;51.476;7.210;2022-07-24T15:26:39;49.40;9.40
11423;DHT22;5768;51.476;7.210;2022-07-24T15:29:43;51.10;9.50
11423;DHT22;5768;51.476;7.210;2022-07-24T15:32:45;50.00;10.20
11423;DHT22;5768;51.476;7.210;2022-07-24T15:35:48;48.50;8.90
11423;DHT22;5768;51.476;7.210;2022-07-24T15:38:50;48.40;8.30
11423;DHT22;5768;51.476;7.210;2022-07-24T15:41:52;48.20;8.40
11423;DHT22;5768;51.476;7.210;2022-07-24T15:44:57;49.90;8.30
11423;DHT22;5768;51.476;7.210;2022-07-24T15:47:59;51.70;8.10
11423;DHT22;5768;51.476;7.210;2022-07-24T15:51:02;50.10;8.10
11423;DHT22;5768;51.476;7.210;2022-07-24T15:54:05;50.30;8.40
11423;DHT22;5768;51.476;7.210;2022-07-24T15:57:08;50.90;8.30
11423;DHT22;5768;51.476;7.210;2022-07-24T16:00:12;50.60;7.70
11423;DHT22;5768;51.476;7.210;2022-07-24T16:03:15;52.10;7.70
11423;DHT22;5768;51.476;7.210;2022-07-24T16:06:20;53.20;7.90
11423;DHT22;5768;51.476;7.210;2022-07-24T16:09:24;53.30;7.80
11423;DHT22;5768;51.476;7.210;2022-07-24T16:12:26;51.90;7.80
11423;DHT22;5768;51.476;7.210;2022-07-24T16:15:30;49.90;7.90
11423;DHT22;5768;51.476;7.210;2022-07-24T16:18:32;49.40;8.30
11423;DHT22;5768;51.476;7.210;2022-07-24T16:21:38;49.10;8.30
11423;DHT22;5768;51.476;7.210;2022-07-24T16:24:41;49.30;8.50
11423;DHT22;5768;51.476;7.210;2022-07-24T16:27:43;49.80;8.40
11423;DHT22;5768;51.476;7.210;2022-07-24T16:30:47;51.60;8.30
11423;DHT22;5768;51.476;7.210;2022-07-24T16:33:49;52.40;8.20
11423;DHT22;5768;51.476;7.210;2022-07-24T16:36:51;53.00;8.40
11423;DHT22;5768;51.476;7.210;2022-07-24T16:39:53;52.70;8.10
11423;DHT22;5768;51.476;7.210;2022-07-24T16:42:57;53.00;8.10
11423;DHT22;5768;51.476;7.210;2022-07-24T16:46:01;53.80;8.10
11423;DHT22;5768;51.476;7.210;2022-07-24T16:49:04;54.40;8.00
11423;DHT22;5768;51.476;7.210;2022-07-24T16:52:06;54.70;8.00
11423;DHT22;5768;51.476;7.210;2022-07-24T16:55:12;54.80;8.10
11423;DHT22;5768;51.476;7.210;2022-07-24T16:58:15;55.00;8.00
11423;DHT22;5768;51.476;7.210;2022-07-24T17:01:18;54.50;7.80
11423;DHT22;5768;51.476;7.210;2022-07-24T17:04:21;53.70;8.00
11423;DHT22;5768;51.476;7.210;2022-07-24T17:07:23;53.90;8.10
11423;DHT22;5768;51.476;7.210;2022-07-24T17:10:28;54.00;8.20
11423;DHT22;5768;51.476;7.210;2022-07-24T17:13:32;54.30;8.00
11423;DHT22;5768;51.476;7.210;2022-07-24T17:16:35;54.70;7.90
11423;DHT22;5768;51.476;7.210;2022-07-24T17:19:38;54.40;8.10
11423;DHT22;5768;51.476;7.210;2022-07-24T17:22:40;53.50;8.30
11423;DHT22;5768;51.476;7.210;2022-07-24T17:25:42;53.50;8.30
11423;DHT22;5768;51.476;7.210;2022-07-24T17:28:45;52.90;8.20
11423;DHT22;5768;51.476;7.210;2022-07-24T17:31:49;51.90;8.30
11423;DHT22;5768;51.476;7.210;2022-07-24T17:34:53;51.40;8.30
11423;DHT22;5768;51.476;7.210;2022-07-24T17:37:58;51.10;8.30
11423;DHT22;5768;51.476;7.210;2022-07-24T17:41:05;50.10;8.40
11423;DHT22;5768;51.476;7.210;2022-07-24T17:44:15;50.70;8.40
11423;DHT22;5768;51.476;7.210;2022-07-24T17:47:25;51.00;8.40
11423;DHT22;5768;51.476;7.210;2022-07-24T17:50:33;51.20;8.50
11423;DHT22;5768;51.476;7.210;2022-07-24T17:53:45;50.10;8.50
11423;DHT22;5768;51.476;7.210;2022-07-24T17:56:53;50.30;8.60
11423;DHT22;5768;51.476;7.210;2022-07-24T18:00:11;49.40;8.80
11423;DHT22;5768;51.476;7.210;2022-07-24T18:03:18;48.10;8.90
11423;DHT22;5768;51.476;7.210;2022-07-24T18:06:26;48.80;9.00
11423;DHT22;5768;51.476;7.210;2022-07-24T18:09:30;48.90;9.20
11423;DHT22;5768;51.476;7.210;2022-07-24T18:12:38;49.20;9.00
11423;DHT22;5768;51.476;7.210;2022-07-24T18:15:41;48.70;9.10
11423;DHT22;5768;51.476;7.210;2022-07-24T18:19:03;47.10;10.00
11423;DHT22;5768;51.476;7.210;2022-07-24T18:22:11;45.50;10.60
11423;DHT22;5768;51.476;7.210;2022-07-24T18:59:12;37.50;11.70
11423;DHT22;5768;51.476;7.210;2022-07-24T19:02:17;36.70;10.80
11423;DHT22;5768;51.476;7.210;2022-07-24T19:23:48;33.70;13.20
11423;DHT22;5768;51.476;7.210;2022-07-24T19:26:54;33.40;13.60
11423;DHT22;5768;51.476;7.210;2022-07-24T19:29:56;33.00;13.60
11423;DHT22;5768;51.476;7.210;2022-07-24T19:32:59;32.60;13.70
11423;DHT22;5768;51.476;7.210;2022-07-24T19:36:02;32.00;13.80
11423;DHT22;5768;51.476;7.210;2022-07-24T19:39:06;32.00;14.00
11423;DHT22;5768;51.476;7.210;2022-07-24T19:42:09;31.70;14.20
11423;DHT22;5768;51.476;7.210;2022-07-24T19:45:11;31.40;14.50
11423;DHT22;5768;51.476;7.210;2022-07-24T19:48:13;31.20;14.40
11423;DHT22;5768;51.476;7.210;2022-07-24T19:51:17;31.00;14.60
11423;DHT22;5768;51.476;7.210;2022-07-24T19:54:20;30.80;14.40
11423;DHT22;5768;51.476;7.210;2022-07-24T19:57:28;30.60;14.50
11423;DHT22;5768;51.476;7.210;2022-07-24T20:00:30;30.40;14.70
11423;DHT22;5768;51.476;7.210;2022-07-24T20:03:32;30.30;14.90
11423;DHT22;5768;51.476;7.210;2022-07-24T20:06:36;30.20;14.90
11423;DHT22;5768;51.476;7.210;2022-07-24T20:09:39;29.90;14.90
11423;DHT22;5768;51.476;7.210;2022-07-24T20:12:41;29.80;15.00
11423;DHT22;5768;51.476;7.210;2022-07-24T20:15:44;29.60;15.00
11423;DHT22;5768;51.476;7.210;2022-07-24T20:18:46;29.50;15.10
11423;DHT22;5768;51.476;7.210;2022-07-24T20:21:50;29.30;15.20
11423;DHT22;5768;51.476;7.210;2022-07-24T20:24:55;29.20;15.30
11423;DHT22;5768;51.476;7.210;2022-07-24T20:27:58;29.10;15.20
11423;DHT22;5768;51.476;7.210;2022-07-24T20:31:00;28.90;15.30
11423;DHT22;5768;51.476;7.210;2022-07-24T20:34:02;28.80;15.40
11423;DHT22;5768;51.476;7.210;2022-07-24T20:37:07;28.70;15.50
11423;DHT22;5768;51.476;7.210;2022-07-24T20:43:12;28.40;15.20
11423;DHT22;5768;51.476;7.210;2022-07-24T20:46:15;28.40;15.30
11423;DHT22;5768;51.476;7.210;2022-07-24T20:49:17;28.40;15.60
11423;DHT22;5768;51.476;7.210;2022-07-24T20:52:21;28.30;15.60
11423;DHT22;5768;51.476;7.210;2022-07-24T20:55:23;28.10;15.70